createdAt,value
2023-01-20T00:01:09.624Z,2.53
2023-01-20T00:03:37.910Z,2.78
2023-01-20T00:06:06.356Z,1.20
2023-01-20T00:08:34.528Z,2.20
2023-01-20T00:11:05.637Z,1.48
2023-01-20T00:13:35.160Z,1.60
2023-01-20T00:16:04.096Z,1.80
2023-01-20T00:18:32.553Z,1.42
2023-01-20T00:21:03.786Z,1.50
2023-01-20T00:23:31.980Z,1.27
2023-01-20T00:26:00.127Z,1.20
2023-01-20T00:28:28.185Z,1.92
2023-01-20T00:30:57.548Z,1.63
2023-01-20T00:33:25.571Z,1.30
2023-01-20T00:35:53.537Z,1.38
2023-01-20T00:38:21.688Z,1.83
2023-01-20T00:40:55.080Z,2.20
2023-01-20T00:43:23.197Z,0.95
2023-01-20T00:45:51.241Z,1.00
2023-01-20T00:48:20.668Z,1.75
2023-01-20T00:50:48.650Z,2.00
2023-01-20T00:53:16.777Z,1.45
2023-01-20T00:55:45.040Z,1.25
2023-01-20T00:58:13.005Z,1.02
2023-01-20T01:00:41.158Z,1.40
2023-01-20T01:03:10.334Z,1.55
2023-01-20T01:05:39.719Z,0.95
2023-01-20T01:08:07.706Z,1.38
2023-01-20T01:10:35.964Z,2.40
2023-01-20T01:13:05.414Z,1.00
2023-01-20T01:15:33.848Z,1.00
2023-01-20T01:18:02.278Z,2.22
2023-01-20T01:20:30.464Z,1.05
2023-01-20T01:22:59.989Z,1.55
2023-01-20T01:25:27.943Z,2.08
2023-01-20T01:27:55.951Z,1.00
2023-01-20T01:30:23.976Z,1.08
2023-01-20T01:32:52.022Z,0.95
2023-01-20T01:35:20.149Z,1.35
2023-01-20T01:37:48.208Z,1.23
2023-01-20T01:40:18.487Z,1.00
2023-01-20T01:42:46.502Z,1.08
2023-01-20T01:45:27.280Z,1.15
2023-01-20T01:48:09.005Z,1.30
2023-01-20T01:50:42.765Z,0.95
2023-01-20T01:53:11.285Z,0.73
2023-01-20T01:55:44.205Z,1.38
2023-01-20T01:58:16.574Z,0.68
2023-01-20T02:00:45.536Z,1.00
2023-01-20T02:03:14.297Z,1.15
2023-01-20T02:05:44.681Z,2.05
2023-01-20T02:08:12.795Z,1.95
2023-01-20T02:10:42.149Z,0.93
2023-01-20T02:13:10.320Z,0.80
2023-01-20T02:15:43.396Z,1.13
2023-01-20T02:18:27.210Z,1.30
2023-01-20T02:21:45.539Z,1.50
2023-01-20T02:25:07.361Z,1.00
2023-01-20T02:28:00.870Z,1.35
2023-01-20T02:30:50.345Z,1.25
2023-01-20T02:33:27.607Z,1.30
2023-01-20T02:36:01.111Z,0.60
2023-01-20T02:38:35.688Z,0.70
2023-01-20T02:41:10.398Z,0.90
2023-01-20T02:43:46.085Z,3.03
2023-01-20T02:46:22.238Z,0.85
2023-01-20T02:48:56.813Z,1.00
2023-01-20T02:51:30.965Z,1.33
2023-01-20T02:54:03.324Z,1.40
2023-01-20T02:56:32.981Z,0.93
2023-01-20T02:59:05.901Z,2.10
2023-01-20T03:01:39.025Z,1.27
2023-01-20T03:04:11.807Z,1.48
2023-01-20T03:06:45.029Z,1.30
2023-01-20T03:09:17.552Z,1.52
2023-01-20T03:11:51.073Z,2.13
2023-01-20T03:14:19.966Z,2.30
2023-01-20T03:16:50.414Z,0.73
2023-01-20T03:19:20.773Z,1.05
2023-01-20T03:21:49.510Z,1.02
2023-01-20T03:24:17.732Z,1.40
2023-01-20T03:26:45.872Z,1.50
2023-01-20T03:29:16.059Z,1.92
2023-01-20T03:31:48.188Z,1.58
2023-01-20T03:34:22.302Z,1.08
2023-01-20T03:36:51.395Z,1.70
2023-01-20T03:39:20.118Z,0.77
2023-01-20T03:41:59.012Z,1.10
2023-01-20T03:44:39.990Z,1.00
2023-01-20T03:47:11.931Z,1.08
2023-01-20T03:49:47.511Z,0.70
2023-01-20T03:52:23.337Z,1.15
2023-01-20T03:55:17.227Z,1.48
2023-01-20T03:57:50.594Z,1.15
2023-01-20T04:00:21.179Z,1.63
2023-01-20T04:02:51.124Z,1.48
2023-01-20T04:05:21.054Z,1.02
2023-01-20T04:07:51.013Z,2.13
2023-01-20T04:10:20.044Z,1.27
2023-01-20T04:12:48.101Z,1.27
2023-01-20T04:15:17.994Z,0.95
2023-01-20T04:17:46.214Z,1.63
2023-01-20T04:20:15.987Z,0.98
2023-01-20T04:22:51.065Z,1.17
2023-01-20T04:25:25.530Z,0.75
2023-01-20T04:27:53.699Z,1.98
2023-01-20T04:30:21.811Z,0.68
2023-01-20T04:32:49.884Z,2.17
2023-01-20T04:35:19.902Z,0.77
2023-01-20T04:37:49.401Z,1.35
2023-01-20T04:40:17.757Z,0.65
2023-01-20T04:42:45.685Z,0.98
2023-01-20T04:45:16.444Z,1.20
2023-01-20T04:47:44.724Z,1.25
2023-01-20T04:50:13.943Z,0.77
2023-01-20T04:52:42.307Z,0.75
2023-01-20T04:55:13.156Z,1.30
2023-01-20T04:57:41.416Z,0.73
2023-01-20T05:00:10.735Z,0.85
2023-01-20T05:02:38.745Z,1.27
2023-01-20T05:05:07.219Z,0.70
2023-01-20T05:07:35.272Z,1.20
2023-01-20T05:10:03.394Z,1.10
2023-01-20T05:12:32.769Z,0.82
2023-01-20T05:15:00.688Z,0.98
2023-01-20T05:17:28.726Z,1.52
2023-01-20T05:19:56.621Z,1.00
2023-01-20T05:22:24.672Z,0.95
2023-01-20T05:24:52.660Z,1.05
2023-01-20T05:27:20.647Z,2.20
2023-01-20T05:29:50.046Z,0.60
2023-01-20T05:32:18.023Z,1.08
2023-01-20T05:34:45.969Z,0.90
2023-01-20T05:37:13.917Z,1.63
2023-01-20T05:39:41.887Z,0.90
2023-01-20T05:42:09.942Z,2.00
2023-01-20T05:44:37.982Z,0.80
2023-01-20T05:47:07.379Z,0.88
2023-01-20T05:49:35.392Z,0.80
2023-01-20T05:52:03.376Z,1.23
2023-01-20T05:54:31.381Z,1.60
2023-01-20T05:56:59.882Z,0.60
2023-01-20T05:59:27.930Z,0.80
2023-01-20T06:01:57.960Z,1.10
2023-01-20T06:04:28.248Z,1.42
2023-01-20T06:06:56.355Z,0.80
2023-01-20T06:09:24.422Z,1.15
2023-01-20T06:11:52.502Z,1.02
2023-01-20T06:14:20.688Z,1.77
2023-01-20T06:16:48.651Z,0.93
2023-01-20T06:19:16.630Z,1.35
2023-01-20T06:21:46.934Z,0.70
2023-01-20T06:24:15.331Z,0.82
2023-01-20T06:26:43.209Z,1.30
2023-01-20T06:29:11.177Z,0.65
2023-01-20T06:31:39.142Z,1.08
2023-01-20T06:34:07.096Z,1.40
2023-01-20T06:36:35.086Z,0.75
2023-01-20T06:39:04.921Z,1.00
2023-01-20T06:41:33.047Z,0.90
2023-01-20T06:44:01.042Z,1.13
2023-01-20T06:46:29.083Z,0.60
2023-01-20T06:49:00.591Z,1.83
2023-01-20T06:51:30.440Z,0.93
2023-01-20T06:53:58.853Z,1.58
2023-01-20T06:56:28.409Z,1.25
2023-01-20T06:58:56.392Z,0.60
2023-01-20T07:01:26.797Z,1.05
2023-01-20T07:03:55.101Z,2.33
2023-01-20T07:06:28.018Z,0.68
2023-01-20T07:08:58.769Z,0.80
2023-01-20T07:11:28.925Z,0.60
2023-01-20T07:13:56.887Z,1.38
2023-01-20T07:16:24.977Z,0.52
2023-01-20T07:18:53.637Z,1.90
2023-01-20T07:21:24.545Z,1.02
2023-01-20T07:23:54.096Z,0.65
2023-01-20T07:26:24.300Z,0.70
2023-01-20T07:28:53.990Z,1.98
2023-01-20T07:31:23.831Z,0.70
2023-01-20T07:33:52.209Z,0.88
2023-01-20T07:36:20.403Z,0.85
2023-01-20T07:38:49.666Z,0.60
2023-01-20T07:41:20.015Z,2.17
2023-01-20T07:43:50.783Z,0.80
2023-01-20T07:46:20.650Z,1.05
2023-01-20T07:48:48.836Z,1.20
2023-01-20T07:51:17.674Z,1.08
2023-01-20T07:53:47.679Z,0.95
2023-01-20T07:56:17.049Z,4.78
2023-01-20T07:58:45.942Z,4.38
2023-01-20T08:01:16.510Z,3.60
2023-01-20T08:03:46.537Z,1.88
2023-01-20T08:06:16.683Z,3.05
2023-01-20T08:08:44.871Z,2.55
2023-01-20T08:11:15.110Z,2.10
2023-01-20T08:13:43.386Z,2.75
2023-01-20T08:16:13.289Z,1.60
2023-01-20T08:18:41.760Z,8.43
2023-01-20T08:21:19.195Z,2.85
2023-01-20T08:23:47.172Z,2.00
2023-01-20T08:26:15.677Z,3.30
2023-01-20T08:28:43.769Z,3.22
2023-01-20T08:31:13.917Z,4.03
2023-01-20T08:33:43.326Z,2.45
2023-01-20T08:36:14.769Z,2.90
2023-01-20T08:38:43.461Z,2.60
2023-01-20T08:41:14.917Z,4.47
2023-01-20T08:43:44.706Z,2.17
2023-01-20T08:46:14.439Z,2.92
2023-01-20T08:48:43.770Z,3.78
2023-01-20T08:51:15.885Z,3.08
2023-01-20T08:53:44.426Z,2.50
2023-01-20T08:56:13.607Z,2.95
2023-01-20T08:58:42.092Z,1.55
2023-01-20T09:01:11.765Z,2.15
2023-01-20T09:03:42.050Z,2.15
2023-01-20T09:06:15.557Z,1.95
2023-01-20T09:08:43.593Z,2.80
2023-01-20T09:11:14.367Z,2.85
2023-01-20T09:13:42.592Z,2.58
2023-01-20T09:16:13.003Z,1.90
2023-01-20T09:18:41.403Z,3.30
2023-01-20T09:21:10.044Z,3.65
2023-01-20T09:23:42.914Z,1.80
2023-01-20T09:26:12.384Z,4.93
2023-01-20T09:28:42.276Z,3.25
2023-01-20T09:31:11.526Z,6.03
2023-01-20T09:33:41.708Z,5.07
2023-01-20T09:36:11.770Z,4.90
2023-01-20T09:38:58.706Z,6.40
2023-01-20T09:41:47.120Z,3.45
2023-01-20T09:44:41.076Z,3.03
2023-01-20T09:47:23.290Z,4.05
2023-01-20T09:50:21.989Z,4.47
2023-01-20T09:53:05.344Z,2.72
2023-01-20T09:55:41.920Z,5.57
2023-01-20T09:58:22.003Z,3.38
2023-01-20T10:00:54.919Z,2.97
2023-01-20T10:03:29.462Z,4.25
2023-01-20T10:06:02.476Z,3.83
2023-01-20T10:08:38.491Z,4.25
2023-01-20T10:11:13.778Z,4.00
2023-01-20T10:13:51.464Z,4.85
2023-01-20T10:16:29.987Z,5.70
2023-01-20T10:19:03.167Z,2.38
2023-01-20T10:21:37.325Z,2.60
2023-01-20T10:24:11.369Z,7.35
2023-01-20T10:26:46.739Z,2.92
2023-01-20T10:29:21.345Z,5.03
2023-01-20T10:31:59.453Z,5.65
2023-01-20T10:34:33.108Z,4.95
2023-01-20T10:37:07.892Z,6.72
2023-01-20T10:39:53.109Z,6.95
2023-01-20T10:42:24.229Z,7.35
2023-01-20T10:44:53.644Z,5.30
2023-01-20T10:47:26.797Z,3.25
2023-01-20T10:50:29.031Z,5.75
2023-01-20T10:53:22.558Z,4.72
2023-01-20T10:56:00.195Z,5.55
2023-01-20T10:58:32.847Z,4.50
2023-01-20T11:01:04.482Z,4.28
2023-01-20T11:03:36.845Z,4.75
2023-01-20T11:06:07.230Z,6.00
2023-01-20T11:08:35.253Z,4.13
2023-01-20T11:11:13.819Z,5.10
2023-01-20T11:13:43.245Z,7.45
2023-01-20T11:16:17.378Z,5.22
2023-01-20T11:18:57.775Z,4.22
2023-01-20T11:21:27.680Z,5.13
2023-01-20T11:23:57.730Z,5.25
2023-01-20T11:26:28.556Z,5.45
2023-01-20T11:28:59.741Z,4.95
2023-01-20T11:31:41.012Z,4.72
2023-01-20T11:34:23.560Z,6.78
2023-01-20T11:36:52.529Z,13.95
2023-01-20T11:39:28.327Z,4.82
2023-01-20T11:42:13.154Z,4.80
2023-01-20T11:44:46.397Z,6.53
2023-01-20T11:47:23.927Z,4.63
2023-01-20T11:50:28.266Z,33.30
2023-01-20T11:53:13.722Z,20.10
2023-01-20T11:56:00.884Z,10.73
2023-01-20T11:58:30.461Z,9.13
2023-01-20T12:01:05.959Z,14.48
2023-01-20T12:04:00.758Z,9.75
2023-01-20T12:06:31.043Z,6.20
2023-01-20T12:09:03.845Z,4.63
2023-01-20T12:11:36.888Z,9.30
2023-01-20T12:14:23.239Z,6.63
2023-01-20T12:17:01.542Z,5.35
2023-01-20T12:19:38.437Z,6.55
2023-01-20T12:22:14.560Z,4.47
2023-01-20T12:25:11.646Z,5.03
2023-01-20T12:27:46.168Z,7.13
2023-01-20T12:30:35.977Z,4.15
2023-01-20T12:33:05.666Z,5.40
2023-01-20T12:35:42.334Z,4.72
2023-01-20T12:38:16.496Z,4.05
2023-01-20T12:40:49.980Z,8.05
2023-01-20T12:43:32.640Z,6.03
2023-01-20T12:46:24.077Z,6.38
2023-01-20T12:49:03.550Z,3.58
2023-01-20T12:51:43.955Z,5.93
2023-01-20T12:54:48.244Z,4.45
2023-01-20T12:57:29.617Z,4.22
2023-01-20T13:00:12.285Z,5.00
2023-01-20T13:03:13.734Z,3.40
2023-01-20T13:06:04.419Z,5.85
2023-01-20T13:08:43.073Z,4.38
2023-01-20T13:11:22.104Z,5.60
2023-01-20T13:14:03.312Z,4.43
2023-01-20T13:16:38.054Z,4.03
2023-01-20T13:19:13.529Z,5.35
2023-01-20T13:21:42.898Z,6.47
2023-01-20T13:24:19.120Z,3.55
2023-01-20T13:26:48.210Z,2.85
2023-01-20T13:29:43.000Z,4.18
2023-01-20T13:32:32.112Z,2.88
2023-01-20T13:35:01.936Z,3.08
2023-01-20T13:37:36.455Z,6.53
2023-01-20T13:40:06.849Z,5.25
2023-01-20T13:42:51.446Z,3.40
2023-01-20T13:45:25.766Z,5.22
2023-01-20T13:47:58.593Z,4.00
2023-01-20T13:50:30.533Z,4.40
2023-01-20T13:53:27.880Z,5.82
2023-01-20T13:56:26.509Z,4.35
2023-01-20T13:58:55.283Z,3.47
2023-01-20T14:01:23.295Z,2.58
2023-01-20T14:04:04.041Z,5.03
2023-01-20T14:06:33.231Z,4.28
2023-01-20T14:09:03.637Z,4.82
2023-01-20T14:11:32.294Z,3.22
2023-01-20T14:14:02.527Z,3.92
2023-01-20T14:16:37.778Z,2.47
2023-01-20T14:19:20.418Z,3.60
2023-01-20T14:21:54.083Z,2.50
2023-01-20T14:24:29.504Z,3.58
2023-01-20T14:27:07.838Z,4.60
2023-01-20T14:29:35.863Z,2.80
2023-01-20T14:32:17.467Z,3.33
2023-01-20T14:34:45.463Z,2.45
2023-01-20T14:37:26.262Z,4.07
2023-01-20T14:39:58.771Z,2.45
2023-01-20T14:42:29.698Z,3.97
2023-01-20T14:44:58.625Z,2.55
2023-01-20T14:47:27.859Z,2.90
2023-01-20T14:49:56.790Z,3.67
2023-01-20T14:52:28.779Z,2.65
2023-01-20T14:54:59.017Z,4.90
2023-01-20T14:57:30.230Z,2.30
2023-01-20T15:00:19.006Z,1.80
2023-01-20T15:03:01.335Z,1.83
2023-01-20T15:05:40.292Z,3.03
2023-01-20T15:08:24.346Z,3.35
2023-01-20T15:11:21.867Z,3.20
2023-01-20T15:14:10.650Z,2.58
2023-01-20T15:16:50.790Z,7.45
2023-01-20T15:19:35.637Z,1.88
2023-01-20T15:22:22.273Z,4.03
2023-01-20T15:24:51.199Z,6.93
2023-01-20T15:27:38.376Z,8.15
2023-01-20T15:30:20.063Z,3.22
2023-01-20T15:32:49.517Z,3.00
2023-01-20T15:35:22.789Z,2.97
2023-01-20T15:37:51.517Z,3.17
2023-01-20T15:40:21.353Z,3.72
2023-01-20T15:42:51.438Z,3.55
2023-01-20T15:45:19.720Z,4.15
2023-01-20T15:47:48.151Z,3.92
2023-01-20T15:50:18.672Z,4.13
2023-01-20T15:52:46.912Z,4.45
2023-01-20T15:55:16.018Z,5.65
2023-01-20T15:57:44.853Z,5.53
2023-01-20T16:00:20.119Z,8.13
2023-01-20T16:02:48.300Z,5.68
2023-01-20T16:05:17.752Z,4.00
2023-01-20T16:07:47.737Z,3.67
2023-01-20T16:10:18.192Z,3.97
2023-01-20T16:12:46.954Z,6.07
2023-01-20T16:15:16.417Z,6.07
2023-01-20T16:17:45.998Z,4.38
2023-01-20T16:20:19.457Z,3.05
2023-01-20T16:22:47.511Z,4.53
2023-01-20T16:25:15.720Z,5.38
2023-01-20T16:27:43.997Z,5.38
2023-01-20T16:30:16.149Z,7.18
2023-01-20T16:32:46.422Z,4.75
2023-01-20T16:35:15.240Z,4.75
2023-01-20T16:37:45.476Z,5.38
2023-01-20T16:40:15.175Z,4.85
2023-01-20T16:42:44.123Z,5.20
2023-01-20T16:45:24.026Z,4.90
2023-01-20T16:47:53.545Z,3.67
2023-01-20T16:50:22.261Z,6.45
2023-01-20T16:52:50.290Z,6.18
2023-01-20T16:55:18.775Z,6.25
2023-01-20T16:57:46.820Z,4.75
2023-01-20T17:00:18.634Z,4.13
2023-01-20T17:02:50.602Z,3.78
2023-01-20T17:05:22.685Z,6.38
2023-01-20T17:07:51.361Z,5.35
2023-01-20T17:10:20.157Z,4.18
2023-01-20T17:12:49.076Z,6.60
2023-01-20T17:15:17.218Z,4.78
2023-01-20T17:17:49.256Z,4.07
2023-01-20T17:20:19.333Z,5.97
2023-01-20T17:22:47.854Z,4.15
2023-01-20T17:25:17.918Z,3.75
2023-01-20T17:27:46.323Z,4.60
2023-01-20T17:30:15.720Z,4.47
2023-01-20T17:32:47.251Z,4.05
2023-01-20T17:35:15.599Z,3.63
2023-01-20T17:37:44.933Z,4.03
2023-01-20T17:40:13.864Z,3.15
2023-01-20T17:42:43.622Z,4.78
2023-01-20T17:45:12.767Z,2.70
2023-01-20T17:47:40.846Z,4.53
2023-01-20T17:50:09.828Z,3.63
2023-01-20T17:52:37.921Z,3.38
2023-01-20T17:55:08.463Z,3.90
2023-01-20T17:57:36.431Z,3.38
2023-01-20T18:00:06.236Z,3.15
2023-01-20T18:02:34.878Z,6.28
2023-01-20T18:05:03.111Z,4.38
2023-01-20T18:07:31.108Z,4.47
2023-01-20T18:09:59.114Z,4.35
2023-01-20T18:12:28.408Z,10.30
2023-01-20T18:14:57.740Z,3.40
2023-01-20T18:17:25.692Z,3.65
2023-01-20T18:19:53.753Z,3.80
2023-01-20T18:22:21.686Z,4.90
2023-01-20T18:24:49.721Z,3.97
2023-01-20T18:27:18.790Z,4.45
2023-01-20T18:29:50.862Z,3.83
2023-01-20T18:32:18.765Z,4.25
2023-01-20T18:34:46.657Z,3.90
2023-01-20T18:37:14.697Z,4.93
2023-01-20T18:39:43.928Z,4.75
2023-01-20T18:42:12.156Z,4.85
2023-01-20T18:44:40.062Z,4.38
2023-01-20T18:47:09.491Z,4.15
2023-01-20T18:49:37.506Z,5.05
2023-01-20T18:52:06.332Z,6.18
2023-01-20T18:54:37.155Z,5.88
2023-01-20T18:57:06.790Z,4.93
2023-01-20T18:59:36.708Z,7.07
2023-01-20T19:02:04.669Z,7.47
2023-01-20T19:04:35.677Z,5.85
2023-01-20T19:07:03.764Z,6.57
2023-01-20T19:09:31.732Z,5.88
2023-01-20T19:11:59.770Z,5.90
2023-01-20T19:14:27.841Z,7.97
2023-01-20T19:16:55.989Z,5.88
2023-01-20T19:19:24.104Z,7.55
2023-01-20T19:21:53.515Z,7.18
2023-01-20T19:24:22.853Z,7.70
2023-01-20T19:26:50.917Z,9.88
2023-01-20T19:29:19.756Z,6.70
2023-01-20T19:31:49.093Z,8.02
2023-01-20T19:34:17.241Z,7.20
2023-01-20T19:36:45.334Z,6.90
2023-01-20T19:39:15.522Z,8.15
2023-01-20T19:41:43.801Z,7.75
2023-01-20T19:44:13.589Z,8.43
2023-01-20T19:46:41.780Z,7.53
2023-01-20T19:49:11.558Z,8.52
2023-01-20T19:51:39.618Z,8.65
2023-01-20T19:54:07.934Z,8.40
2023-01-20T19:56:37.528Z,8.93
2023-01-20T19:59:06.982Z,7.20
2023-01-20T20:01:37.019Z,9.40
2023-01-20T20:04:07.358Z,10.68
2023-01-20T20:06:36.798Z,7.25
2023-01-20T20:09:07.141Z,11.02
2023-01-20T20:11:35.473Z,8.20
2023-01-20T20:14:07.283Z,7.60
2023-01-20T20:16:37.045Z,8.55
2023-01-20T20:19:05.944Z,8.35
2023-01-20T20:21:35.026Z,8.73
2023-01-20T20:24:05.214Z,8.02
2023-01-20T20:26:35.053Z,7.45
2023-01-20T20:29:06.347Z,5.95
2023-01-20T20:31:36.174Z,8.73
2023-01-20T20:34:05.962Z,9.02
2023-01-20T20:36:34.268Z,8.07
2023-01-20T20:39:03.544Z,7.43
2023-01-20T20:41:33.311Z,7.97
2023-01-20T20:44:02.730Z,7.32
2023-01-20T20:46:32.471Z,7.15
2023-01-20T20:49:02.126Z,6.47
2023-01-20T20:51:31.866Z,7.15
2023-01-20T20:54:01.438Z,7.45
2023-01-20T20:56:31.712Z,6.78
2023-01-20T20:59:03.079Z,7.97
2023-01-20T21:01:34.861Z,6.97
2023-01-20T21:04:03.652Z,7.85
2023-01-20T21:06:32.626Z,7.40
2023-01-20T21:09:01.074Z,8.05
2023-01-20T21:11:29.867Z,7.20
2023-01-20T21:13:57.977Z,7.43
2023-01-20T21:16:27.737Z,8.05
2023-01-20T21:18:59.337Z,7.95
2023-01-20T21:21:29.048Z,6.22
2023-01-20T21:23:59.003Z,7.65
2023-01-20T21:26:30.409Z,8.25
2023-01-20T21:29:01.679Z,7.78
2023-01-20T21:31:31.017Z,6.45
2023-01-20T21:34:01.047Z,6.28
2023-01-20T21:36:30.237Z,6.43
2023-01-20T21:38:59.501Z,7.60
2023-01-20T21:41:27.482Z,7.43
2023-01-20T21:44:12.758Z,6.88
2023-01-20T21:46:41.391Z,6.45
2023-01-20T21:49:28.500Z,6.43
2023-01-20T21:52:14.913Z,6.80
2023-01-20T21:54:45.185Z,6.00
2023-01-20T21:57:13.884Z,5.38
2023-01-20T21:59:41.893Z,7.65
2023-01-20T22:02:12.227Z,5.32
2023-01-20T22:04:41.651Z,5.85
2023-01-20T22:07:10.357Z,4.95
2023-01-20T22:09:38.507Z,6.25
2023-01-20T22:12:07.121Z,4.22
2023-01-20T22:14:35.074Z,5.10
2023-01-20T22:17:03.267Z,4.53
2023-01-20T22:19:31.664Z,4.75
2023-01-20T22:22:01.795Z,3.40
2023-01-20T22:24:29.970Z,2.95
2023-01-20T22:26:58.585Z,2.60
2023-01-20T22:29:26.872Z,3.15
2023-01-20T22:31:56.088Z,2.22
2023-01-20T22:34:24.287Z,3.33
2023-01-20T22:36:52.315Z,2.40
2023-01-20T22:39:21.744Z,2.10
2023-01-20T22:41:49.823Z,2.50
2023-01-20T22:44:17.787Z,3.88
2023-01-20T22:46:45.780Z,1.80
2023-01-20T22:49:14.015Z,2.38
2023-01-20T22:51:42.097Z,2.13
2023-01-20T22:54:11.732Z,3.03
2023-01-20T22:56:41.127Z,2.10
2023-01-20T22:59:09.042Z,2.47
2023-01-20T23:01:37.350Z,2.00
2023-01-20T23:04:07.059Z,3.08
2023-01-20T23:06:37.705Z,2.38
2023-01-20T23:09:08.125Z,1.95
2023-01-20T23:11:38.363Z,2.78
2023-01-20T23:14:10.502Z,2.20
2023-01-20T23:16:38.895Z,1.70
2023-01-20T23:19:06.924Z,1.95
2023-01-20T23:21:35.440Z,2.53
2023-01-20T23:24:03.498Z,2.50
2023-01-20T23:26:32.653Z,2.13
2023-01-20T23:29:00.901Z,1.92
2023-01-20T23:31:33.298Z,1.90
2023-01-20T23:34:01.348Z,2.13
2023-01-20T23:36:29.368Z,2.00
2023-01-20T23:38:57.891Z,1.58
2023-01-20T23:41:26.519Z,1.67
2023-01-20T23:43:54.433Z,1.83
2023-01-20T23:46:22.593Z,2.50
2023-01-20T23:48:51.936Z,2.65
2023-01-20T23:51:20.019Z,3.75
2023-01-20T23:53:48.083Z,1.65
2023-01-20T23:56:17.977Z,2.60
2023-01-20T23:58:46.222Z,1.88
